createdAt,value
2022-09-12T00:00:23.075Z,4.28
2022-09-12T00:02:53.526Z,4.47
2022-09-12T00:05:20.041Z,4.50
2022-09-12T00:07:46.354Z,4.72
2022-09-12T00:10:12.648Z,4.47
2022-09-12T00:12:39.149Z,3.63
2022-09-12T00:15:05.832Z,3.30
2022-09-12T00:17:34.372Z,3.22
2022-09-12T00:20:00.643Z,3.60
2022-09-12T00:22:26.915Z,3.30
2022-09-12T00:24:53.179Z,3.47
2022-09-12T00:27:19.603Z,3.13
2022-09-12T00:29:45.883Z,4.63
2022-09-12T00:32:12.191Z,5.20
2022-09-12T00:34:38.579Z,5.13
2022-09-12T00:37:04.862Z,5.18
2022-09-12T00:39:31.177Z,4.47
2022-09-12T00:41:57.460Z,4.60
2022-09-12T00:44:23.953Z,4.45
2022-09-12T00:46:53.543Z,5.55
2022-09-12T00:49:29.000Z,4.93
2022-09-12T00:51:58.809Z,5.55
2022-09-12T00:54:28.008Z,5.88
2022-09-12T00:56:57.526Z,6.78
2022-09-12T00:59:32.710Z,6.22
2022-09-12T01:01:59.120Z,6.35
2022-09-12T01:04:26.952Z,5.72
2022-09-12T01:06:55.696Z,6.28
2022-09-12T01:09:22.752Z,6.75
2022-09-12T01:11:50.298Z,6.68
2022-09-12T01:14:17.531Z,6.75
2022-09-12T01:16:45.123Z,7.28
2022-09-12T01:19:21.395Z,8.35
2022-09-12T01:21:53.598Z,8.20
2022-09-12T01:24:19.929Z,9.40
2022-09-12T01:27:10.543Z,10.07
2022-09-12T01:29:56.880Z,9.30
2022-09-12T01:32:38.724Z,10.68
2022-09-12T01:35:19.779Z,10.13
2022-09-12T01:40:18.100Z,11.55
2022-09-12T01:42:50.688Z,11.63
2022-09-12T01:45:19.937Z,12.00
2022-09-12T01:47:58.453Z,13.07
2022-09-12T01:50:27.565Z,12.23
2022-09-12T01:52:55.906Z,12.90
2022-09-12T01:55:27.716Z,13.13
2022-09-12T01:57:56.579Z,12.82
2022-09-12T02:00:23.015Z,9.52
2022-09-12T02:03:15.467Z,10.80
2022-09-12T02:05:53.498Z,11.10
2022-09-12T02:08:25.853Z,9.77
2022-09-12T02:10:55.027Z,9.25
2022-09-12T02:13:32.091Z,9.50
2022-09-12T02:16:03.591Z,9.95
2022-09-12T02:18:31.938Z,10.98
2022-09-12T02:20:58.338Z,9.80
2022-09-12T02:23:27.418Z,10.20
2022-09-12T02:25:56.067Z,9.40
2022-09-12T02:28:27.550Z,11.00
2022-09-12T02:30:59.583Z,12.52
2022-09-12T02:33:46.219Z,13.68
2022-09-12T02:36:23.997Z,13.23
2022-09-12T02:38:50.563Z,14.13
2022-09-12T02:41:18.742Z,12.63
2022-09-12T02:43:45.236Z,13.05
2022-09-12T02:46:16.179Z,12.85
2022-09-12T02:48:43.386Z,13.15
2022-09-12T02:51:10.884Z,13.25
2022-09-12T02:53:37.496Z,12.63
2022-09-12T02:56:07.297Z,9.82
2022-09-12T02:58:33.939Z,10.07
2022-09-12T03:01:05.480Z,10.20
2022-09-12T03:03:42.686Z,9.63
2022-09-12T03:06:16.096Z,10.20
2022-09-12T03:08:58.088Z,9.55
2022-09-12T03:11:24.487Z,9.85
2022-09-12T03:14:09.159Z,8.73
2022-09-12T03:16:35.658Z,9.55
2022-09-12T03:19:20.311Z,10.43
2022-09-12T03:22:05.567Z,10.32
2022-09-12T03:24:33.422Z,9.40
2022-09-12T03:27:05.647Z,8.43
2022-09-12T03:29:32.610Z,8.85
2022-09-12T03:31:58.871Z,9.23
2022-09-12T03:34:26.267Z,9.27
2022-09-12T03:36:55.243Z,8.73
2022-09-12T03:39:24.128Z,10.13
2022-09-12T03:41:50.799Z,9.23
2022-09-12T03:44:17.681Z,8.82
2022-09-12T03:46:44.249Z,9.27
2022-09-12T03:49:10.883Z,9.35
2022-09-12T03:51:37.522Z,10.25
2022-09-12T03:54:04.029Z,10.43
2022-09-12T03:56:30.306Z,10.52
2022-09-12T03:58:56.609Z,11.18
2022-09-12T04:01:23.021Z,10.77
2022-09-12T04:03:51.007Z,12.02
2022-09-12T04:06:21.255Z,12.20
2022-09-12T04:08:48.628Z,12.13
2022-09-12T04:11:15.196Z,12.85
2022-09-12T04:13:42.724Z,11.75
2022-09-12T04:16:09.626Z,11.55
2022-09-12T04:18:36.124Z,11.45
2022-09-12T04:21:10.279Z,11.70
2022-09-12T04:23:36.850Z,11.75
2022-09-12T04:26:03.810Z,12.30
2022-09-12T04:28:30.417Z,11.55
2022-09-12T04:31:01.043Z,11.18
2022-09-12T04:33:27.449Z,11.77
2022-09-12T04:35:53.703Z,13.43
2022-09-12T04:38:20.072Z,11.43
2022-09-12T04:40:46.331Z,12.25
2022-09-12T04:43:14.676Z,12.68
2022-09-12T04:45:41.111Z,11.85
2022-09-12T04:48:07.421Z,11.68
2022-09-12T04:50:33.721Z,11.20
2022-09-12T04:53:00.126Z,11.32
2022-09-12T04:55:26.485Z,11.23
2022-09-12T04:57:53.010Z,11.48
2022-09-12T05:00:19.347Z,12.20
2022-09-12T05:02:45.883Z,11.32
2022-09-12T05:05:12.331Z,11.77
2022-09-12T05:07:39.168Z,11.57
2022-09-12T05:10:05.671Z,10.80
2022-09-12T05:12:32.005Z,11.25
2022-09-12T05:14:58.330Z,11.90
2022-09-12T05:17:24.640Z,11.10
2022-09-12T05:19:50.937Z,12.18
2022-09-12T05:22:17.635Z,12.30
2022-09-12T05:24:49.895Z,12.30
2022-09-12T05:27:16.865Z,11.25
2022-09-12T05:29:43.145Z,11.95
2022-09-12T05:32:09.670Z,12.77
2022-09-12T05:34:36.046Z,12.57
2022-09-12T05:37:02.341Z,13.80
2022-09-12T05:39:28.617Z,12.63
2022-09-12T05:41:55.767Z,13.93
2022-09-12T05:44:22.088Z,13.38
2022-09-12T05:46:51.153Z,14.35
2022-09-12T05:49:17.493Z,13.88
2022-09-12T05:51:45.057Z,15.13
2022-09-12T05:54:13.213Z,14.77
2022-09-12T05:56:41.239Z,15.38
2022-09-12T05:59:11.966Z,14.40
2022-09-12T06:01:38.363Z,14.27
2022-09-12T06:04:05.272Z,15.75
2022-09-12T06:06:32.244Z,15.43
2022-09-12T06:08:59.994Z,14.38
2022-09-12T06:11:27.287Z,15.98
2022-09-12T06:13:53.568Z,15.40
2022-09-12T06:16:21.858Z,15.55
2022-09-12T06:18:49.190Z,15.02
2022-09-12T06:21:16.111Z,17.08
2022-09-12T06:23:42.512Z,16.30
2022-09-12T06:26:09.821Z,17.73
2022-09-12T06:28:37.016Z,18.33
2022-09-12T06:31:05.012Z,17.65
2022-09-12T06:33:33.014Z,18.08
2022-09-12T06:36:11.569Z,17.80
2022-09-12T06:38:38.934Z,17.63
2022-09-12T06:41:07.053Z,18.65
2022-09-12T06:43:33.877Z,20.67
2022-09-12T06:46:00.259Z,21.50
2022-09-12T06:48:26.644Z,21.27
2022-09-12T06:51:03.221Z,21.30
2022-09-12T06:53:30.125Z,22.85
2022-09-12T06:56:00.540Z,23.77
2022-09-12T06:58:27.519Z,25.25
2022-09-12T07:01:02.155Z,26.20
2022-09-12T07:03:28.564Z,27.00
2022-09-12T07:05:54.838Z,27.98
2022-09-12T07:08:21.235Z,27.48
2022-09-12T07:10:47.950Z,28.13
2022-09-12T07:13:14.273Z,28.50
2022-09-12T07:15:40.564Z,28.30
2022-09-12T07:18:06.844Z,29.52
2022-09-12T07:20:33.109Z,28.83
2022-09-12T07:22:59.926Z,28.48
2022-09-12T07:25:26.651Z,28.48
2022-09-12T07:27:53.634Z,28.60
2022-09-12T07:30:20.132Z,27.52
2022-09-12T07:32:46.552Z,27.83
2022-09-12T07:35:13.339Z,28.88
2022-09-12T07:37:39.644Z,27.13
2022-09-12T07:40:06.196Z,25.38
2022-09-12T07:42:32.493Z,26.38
2022-09-12T07:44:58.776Z,25.02
2022-09-12T07:47:25.031Z,24.98
2022-09-12T07:49:52.324Z,25.27
2022-09-12T07:52:18.593Z,25.27
2022-09-12T07:54:44.869Z,24.52
2022-09-12T07:57:11.170Z,23.83
2022-09-12T07:59:52.382Z,23.30
2022-09-12T08:02:20.015Z,24.63
2022-09-12T08:04:50.272Z,24.00
2022-09-12T08:07:18.289Z,22.73
2022-09-12T08:09:44.685Z,23.73
2022-09-12T08:12:10.987Z,23.02
2022-09-12T08:14:37.274Z,21.13
2022-09-12T08:17:03.597Z,20.40
2022-09-12T08:19:29.871Z,20.90
2022-09-12T08:21:56.138Z,20.15
2022-09-12T08:24:22.418Z,19.17
2022-09-12T08:26:49.218Z,19.10
2022-09-12T08:29:15.746Z,17.98
2022-09-12T08:31:44.614Z,17.63
2022-09-12T08:34:10.991Z,17.75
2022-09-12T08:36:37.371Z,17.15
2022-09-12T08:39:05.238Z,16.70
2022-09-12T08:41:31.723Z,15.55
2022-09-12T08:43:58.007Z,15.10
2022-09-12T08:46:27.405Z,16.00
2022-09-12T08:48:55.560Z,15.10
2022-09-12T08:51:22.040Z,14.82
2022-09-12T08:53:50.422Z,14.15
2022-09-12T08:56:16.749Z,13.98
2022-09-12T08:58:44.488Z,12.50
2022-09-12T09:01:13.620Z,13.15
2022-09-12T09:03:58.707Z,13.27
2022-09-12T09:06:32.157Z,12.88
2022-09-12T09:09:13.874Z,11.88
2022-09-12T09:12:09.593Z,11.60
2022-09-12T09:15:03.347Z,11.23
2022-09-12T09:17:35.816Z,10.75
2022-09-12T09:20:05.462Z,11.50
2022-09-12T09:22:36.204Z,11.43
2022-09-12T09:25:06.348Z,9.93
2022-09-12T09:27:42.285Z,10.98
2022-09-12T09:30:18.741Z,10.68
2022-09-12T09:32:47.944Z,12.23
2022-09-12T09:35:16.775Z,11.88
2022-09-12T09:37:44.825Z,12.48
2022-09-12T09:40:17.069Z,12.48
2022-09-12T09:43:01.847Z,12.05
2022-09-12T09:45:29.671Z,12.30
2022-09-12T09:47:59.842Z,15.13
2022-09-12T09:50:26.367Z,17.10
2022-09-12T09:52:53.977Z,15.20
2022-09-12T09:55:23.115Z,15.98
2022-09-12T09:57:49.903Z,16.05
2022-09-12T10:00:27.448Z,15.20
2022-09-12T10:03:13.153Z,16.20
2022-09-12T10:05:50.449Z,16.63
2022-09-12T10:08:21.135Z,16.63
2022-09-12T10:13:34.515Z,15.23
2022-09-12T10:16:05.812Z,13.93
2022-09-12T10:18:36.543Z,13.75
2022-09-12T10:21:12.428Z,14.35
2022-09-12T10:23:41.046Z,11.98
2022-09-12T10:26:11.348Z,13.25
2022-09-12T10:28:39.542Z,11.75
2022-09-12T10:31:07.075Z,12.43
2022-09-12T10:33:37.935Z,10.80
2022-09-12T10:36:04.680Z,10.15
2022-09-12T10:38:32.327Z,9.25
2022-09-12T10:41:03.489Z,8.18
2022-09-12T10:43:33.436Z,7.88
2022-09-12T10:46:15.601Z,7.50
2022-09-12T10:48:42.769Z,6.70
2022-09-12T10:51:24.377Z,7.75
2022-09-12T10:53:51.637Z,6.70
2022-09-12T10:56:19.286Z,7.18
2022-09-12T10:59:04.161Z,5.90
2022-09-12T11:01:36.787Z,7.03
2022-09-12T11:04:21.682Z,6.40
2022-09-12T11:07:10.296Z,6.10
2022-09-12T11:09:45.670Z,4.80
2022-09-12T11:12:26.318Z,5.38
2022-09-12T11:15:02.851Z,4.80
2022-09-12T11:17:41.875Z,5.80
2022-09-12T11:20:21.547Z,5.28
2022-09-12T11:22:50.797Z,5.67
2022-09-12T11:25:28.002Z,4.90
2022-09-12T11:28:13.824Z,4.50
2022-09-12T11:30:53.713Z,4.55
2022-09-12T11:33:43.095Z,5.13
2022-09-12T11:36:18.652Z,5.37
2022-09-12T11:38:44.970Z,4.95
2022-09-12T11:41:15.498Z,4.07
2022-09-12T11:43:44.285Z,3.88
2022-09-12T11:46:22.653Z,3.90
2022-09-12T11:48:59.818Z,5.03
2022-09-12T11:51:37.250Z,4.82
2022-09-12T11:54:06.598Z,4.63
2022-09-12T11:56:34.335Z,4.32
2022-09-12T11:59:09.384Z,4.10
2022-09-12T12:01:43.907Z,4.68
2022-09-12T12:04:16.228Z,4.07
2022-09-12T12:06:48.935Z,3.95
2022-09-12T12:09:15.542Z,4.68
2022-09-12T12:11:44.299Z,3.55
2022-09-12T12:14:15.476Z,3.42
2022-09-12T12:16:42.171Z,3.58
2022-09-12T12:19:14.616Z,4.28
2022-09-12T12:21:42.986Z,3.95
2022-09-12T12:24:09.242Z,3.30
2022-09-12T12:26:41.392Z,3.78
2022-09-12T12:29:16.957Z,2.67
2022-09-12T12:31:58.356Z,2.90
2022-09-12T12:34:38.077Z,3.47
2022-09-12T12:37:20.042Z,3.17
2022-09-12T12:39:50.715Z,3.03
2022-09-12T12:42:35.205Z,3.00
2022-09-12T12:45:03.974Z,3.60
2022-09-12T12:47:36.513Z,3.00
2022-09-12T12:50:05.988Z,3.15
2022-09-12T12:52:33.400Z,3.35
2022-09-12T12:55:03.870Z,3.40
2022-09-12T12:57:48.718Z,2.95
2022-09-12T13:00:28.051Z,2.90
2022-09-12T13:02:59.798Z,3.15
2022-09-12T13:05:27.383Z,2.50
2022-09-12T13:07:59.847Z,2.70
2022-09-12T13:10:29.168Z,2.53
2022-09-12T13:13:01.260Z,3.20
2022-09-12T13:15:36.708Z,2.63
2022-09-12T13:18:05.637Z,2.25
2022-09-12T13:20:33.889Z,1.92
2022-09-12T13:23:00.312Z,1.73
2022-09-12T13:25:29.403Z,2.55
2022-09-12T13:28:07.111Z,2.70
2022-09-12T13:30:39.399Z,2.25
2022-09-12T13:33:09.969Z,1.98
2022-09-12T13:35:39.259Z,2.20
2022-09-12T13:40:52.308Z,2.15
2022-09-12T13:43:23.152Z,2.03
2022-09-12T13:45:50.599Z,1.67
2022-09-12T13:48:19.298Z,1.80
2022-09-12T13:50:51.503Z,1.93
2022-09-12T13:53:19.389Z,2.30
2022-09-12T13:55:47.281Z,2.20
2022-09-12T13:58:13.530Z,1.70
2022-09-12T14:00:39.947Z,2.10
2022-09-12T14:03:43.934Z,1.90
2022-09-12T14:06:10.760Z,1.90
2022-09-12T14:08:40.679Z,1.60
2022-09-12T14:11:10.924Z,1.90
2022-09-12T14:13:39.079Z,1.90
2022-09-12T14:16:09.777Z,1.90
2022-09-12T14:18:37.910Z,1.58
2022-09-12T14:21:25.910Z,1.80
2022-09-12T14:23:52.348Z,1.65
2022-09-12T14:26:18.804Z,1.88
2022-09-12T14:28:47.550Z,1.70
2022-09-12T14:31:15.549Z,1.70
2022-09-12T14:33:48.983Z,1.65
2022-09-12T14:36:33.772Z,1.60
2022-09-12T14:39:06.811Z,1.80
2022-09-12T14:41:38.095Z,1.55
2022-09-12T14:44:07.678Z,2.00
2022-09-12T14:46:44.172Z,1.50
2022-09-12T14:49:15.823Z,1.70
2022-09-12T14:51:51.688Z,1.70
2022-09-12T14:54:30.182Z,1.50
2022-09-12T14:56:57.915Z,1.63
2022-09-12T14:59:30.182Z,1.65
2022-09-12T15:02:14.855Z,1.40
2022-09-12T15:04:42.532Z,1.98
2022-09-12T15:07:16.915Z,2.30
2022-09-12T15:09:47.269Z,1.77
2022-09-12T15:12:13.755Z,1.80
2022-09-12T15:14:40.041Z,2.10
2022-09-12T15:17:06.299Z,2.00
2022-09-12T15:19:32.593Z,1.98
2022-09-12T15:21:58.903Z,1.83
2022-09-12T15:24:25.447Z,2.33
2022-09-12T15:26:51.730Z,1.80
2022-09-12T15:29:17.988Z,1.88
2022-09-12T15:31:46.036Z,1.83
2022-09-12T15:34:12.389Z,1.73
2022-09-12T15:36:38.774Z,1.80
2022-09-12T15:39:05.199Z,1.55
2022-09-12T15:41:32.432Z,1.67
2022-09-12T15:43:58.920Z,1.50
2022-09-12T15:46:25.323Z,1.65
2022-09-12T15:48:51.600Z,1.50
2022-09-12T15:51:19.398Z,1.38
2022-09-12T15:53:46.700Z,1.38
2022-09-12T15:56:14.454Z,1.30
2022-09-12T15:58:57.283Z,1.30
2022-09-12T16:01:24.980Z,1.70
2022-09-12T16:03:51.347Z,1.35
2022-09-12T16:06:17.797Z,1.40
2022-09-12T16:08:44.369Z,1.45
2022-09-12T16:11:19.423Z,1.50
2022-09-12T16:13:45.777Z,1.30
2022-09-12T16:16:12.081Z,1.40
2022-09-12T16:18:41.592Z,1.50
2022-09-12T16:21:12.645Z,1.40
2022-09-12T16:23:42.420Z,1.27
2022-09-12T16:26:08.710Z,1.48
2022-09-12T16:28:35.329Z,1.40
2022-09-12T16:31:04.210Z,1.30
2022-09-12T16:33:31.027Z,1.27
2022-09-12T16:36:04.678Z,1.40
2022-09-12T16:38:31.489Z,1.38
2022-09-12T16:41:01.279Z,1.55
2022-09-12T16:43:27.585Z,1.60
2022-09-12T16:46:04.202Z,1.70
2022-09-12T16:48:30.802Z,1.45
2022-09-12T16:51:01.869Z,1.48
2022-09-12T16:53:31.992Z,1.55
2022-09-12T16:55:58.292Z,1.40
2022-09-12T16:58:24.612Z,1.42
2022-09-12T17:00:59.615Z,1.48
2022-09-12T17:03:25.907Z,1.42
2022-09-12T17:06:04.196Z,1.70
2022-09-12T17:08:30.991Z,1.73
2022-09-12T17:11:03.445Z,1.55
2022-09-12T17:13:52.976Z,1.63
2022-09-12T17:16:16.450Z,1.75
2022-09-12T17:18:42.790Z,1.60
2022-09-12T17:21:09.986Z,1.63
2022-09-12T17:23:36.670Z,1.77
2022-09-12T17:26:03.585Z,1.63
2022-09-12T17:28:30.222Z,1.80
2022-09-12T17:30:57.182Z,1.77
2022-09-12T17:33:23.963Z,1.60
2022-09-12T17:35:50.484Z,2.00
2022-09-12T17:38:20.192Z,1.70
2022-09-12T17:40:59.461Z,1.70
2022-09-12T17:43:26.396Z,1.60
2022-09-12T17:45:56.890Z,1.90
2022-09-12T17:48:23.263Z,2.10
2022-09-12T17:50:50.525Z,1.88
2022-09-12T17:53:17.839Z,1.90
2022-09-12T17:55:44.202Z,2.00
2022-09-12T17:58:10.867Z,1.85
2022-09-12T18:00:55.803Z,1.88
2022-09-12T18:03:22.842Z,1.92
2022-09-12T18:05:51.726Z,1.83
2022-09-12T18:08:18.011Z,1.92
2022-09-12T18:10:44.449Z,1.90
2022-09-12T18:13:10.981Z,2.00
2022-09-12T18:15:38.271Z,2.10
2022-09-12T18:18:04.860Z,2.45
2022-09-12T18:20:31.871Z,2.05
2022-09-12T18:22:58.224Z,2.33
2022-09-12T18:25:24.523Z,2.50
2022-09-12T18:27:51.006Z,3.08
2022-09-12T18:30:21.970Z,2.83
2022-09-12T18:32:49.116Z,2.75
2022-09-12T18:35:15.462Z,2.70
2022-09-12T18:37:42.253Z,2.00
2022-09-12T18:40:09.182Z,2.45
2022-09-12T18:42:35.521Z,2.40
2022-09-12T18:45:01.788Z,2.50
2022-09-12T18:47:28.624Z,2.40
2022-09-12T18:49:55.144Z,2.20
2022-09-12T18:52:21.454Z,2.38
2022-09-12T18:54:47.710Z,2.30
2022-09-12T18:57:13.974Z,2.50
2022-09-12T18:59:40.260Z,2.42
2022-09-12T19:02:07.027Z,2.33
2022-09-12T19:04:33.844Z,2.42
2022-09-12T19:07:01.447Z,2.47
2022-09-12T19:09:29.002Z,2.65
2022-09-12T19:11:55.281Z,2.90
2022-09-12T19:14:22.778Z,3.13
2022-09-12T19:16:51.905Z,3.22
2022-09-12T19:19:18.846Z,2.78
2022-09-12T19:21:45.651Z,3.10
2022-09-12T19:24:13.485Z,3.40
2022-09-12T19:26:40.424Z,3.25
2022-09-12T19:29:07.033Z,3.20
2022-09-12T19:31:33.570Z,2.97
2022-09-12T19:34:04.372Z,2.78
2022-09-12T19:36:44.807Z,2.70
2022-09-12T19:39:12.751Z,3.00
2022-09-12T19:41:39.166Z,3.15
2022-09-12T19:44:05.831Z,2.83
2022-09-12T19:46:32.249Z,2.80
2022-09-12T19:48:58.587Z,2.50
2022-09-12T19:51:25.179Z,2.78
2022-09-12T19:53:52.176Z,2.92
2022-09-12T19:56:18.734Z,3.28
2022-09-12T19:58:46.475Z,3.00
2022-09-12T20:01:17.295Z,2.83
2022-09-12T20:03:44.311Z,2.85
2022-09-12T20:06:12.323Z,3.10
2022-09-12T20:08:40.034Z,3.47
2022-09-12T20:11:06.810Z,2.78
2022-09-12T20:13:33.208Z,2.97
2022-09-12T20:16:21.643Z,2.83
2022-09-12T20:18:53.718Z,2.70
2022-09-12T20:21:21.769Z,3.00
2022-09-12T20:23:48.138Z,3.28
2022-09-12T20:26:14.423Z,2.97
2022-09-12T20:28:41.249Z,3.20
2022-09-12T20:31:08.613Z,3.20
2022-09-12T20:33:34.955Z,3.20
2022-09-12T20:36:05.579Z,3.35
2022-09-12T20:40:58.470Z,3.22
2022-09-12T20:43:24.881Z,4.50
2022-09-12T20:45:51.246Z,3.85
2022-09-12T20:48:17.516Z,3.35
2022-09-12T20:50:44.954Z,3.60
2022-09-12T20:53:11.256Z,3.88
2022-09-12T20:55:37.570Z,4.20
2022-09-12T20:58:03.830Z,3.90
2022-09-12T21:00:30.461Z,4.05
2022-09-12T21:02:56.901Z,3.97
2022-09-12T21:05:23.286Z,4.20
2022-09-12T21:07:49.596Z,4.20
2022-09-12T21:10:15.931Z,3.90
2022-09-12T21:12:42.248Z,4.10
2022-09-12T21:15:08.825Z,4.05
2022-09-12T21:17:35.392Z,3.80
2022-09-12T21:20:02.177Z,4.10
2022-09-12T21:22:28.461Z,4.00
2022-09-12T21:24:55.065Z,3.80
2022-09-12T21:27:21.379Z,3.90
2022-09-12T21:29:47.682Z,4.20
2022-09-12T21:32:14.472Z,4.18
2022-09-12T21:34:41.703Z,3.50
2022-09-12T21:37:08.284Z,4.05
2022-09-12T21:39:34.703Z,4.32
2022-09-12T21:42:01.124Z,4.22
2022-09-12T21:44:27.409Z,4.18
2022-09-12T21:46:53.759Z,4.35
2022-09-12T21:49:20.123Z,4.07
2022-09-12T21:51:46.541Z,3.80
2022-09-12T21:54:13.867Z,4.13
2022-09-12T21:56:40.251Z,4.50
2022-09-12T21:59:06.757Z,4.22
2022-09-12T22:01:33.062Z,3.92
2022-09-12T22:03:59.339Z,4.10
2022-09-12T22:06:25.615Z,4.07
2022-09-12T22:08:51.892Z,4.40
2022-09-12T22:11:19.697Z,4.07
2022-09-12T22:13:46.046Z,3.55
2022-09-12T22:16:12.528Z,3.60
2022-09-12T22:18:39.000Z,3.95
2022-09-12T22:21:12.200Z,3.50
2022-09-12T22:23:57.210Z,3.72
2022-09-12T22:26:24.220Z,4.28
2022-09-12T22:28:51.003Z,3.70
2022-09-12T22:31:17.854Z,3.95
2022-09-12T22:33:44.755Z,3.50
2022-09-12T22:36:11.373Z,4.00
2022-09-12T22:38:38.000Z,4.05
2022-09-12T22:41:05.211Z,3.75
2022-09-12T22:43:32.048Z,3.92
2022-09-12T22:45:58.579Z,3.85
2022-09-12T22:48:25.271Z,3.85
2022-09-12T22:50:51.712Z,4.10
2022-09-12T22:53:18.030Z,4.00
2022-09-12T22:55:44.945Z,4.07
2022-09-12T22:58:12.139Z,4.25
2022-09-12T23:00:38.689Z,3.90
2022-09-12T23:03:05.120Z,4.10
2022-09-12T23:05:31.432Z,4.00
2022-09-12T23:07:58.224Z,4.55
2022-09-12T23:10:26.103Z,4.07
2022-09-12T23:12:52.655Z,3.92
2022-09-12T23:15:18.997Z,3.88
2022-09-12T23:17:45.272Z,4.50
2022-09-12T23:20:11.531Z,3.60
2022-09-12T23:22:37.827Z,3.63
2022-09-12T23:25:04.624Z,4.07
2022-09-12T23:27:30.905Z,3.78
2022-09-12T23:29:57.496Z,3.58
2022-09-12T23:32:23.946Z,4.32
2022-09-12T23:34:50.222Z,3.85
2022-09-12T23:37:16.520Z,3.55
2022-09-12T23:39:42.821Z,4.10
2022-09-12T23:42:09.279Z,4.05
2022-09-12T23:44:35.571Z,3.92
2022-09-12T23:47:01.894Z,4.10
2022-09-12T23:49:28.187Z,4.68
2022-09-12T23:51:54.455Z,4.47
2022-09-12T23:54:20.727Z,4.07
2022-09-12T23:56:47.085Z,3.58
2022-09-12T23:59:13.371Z,3.75
